createdAt,value
2022-09-27T00:02:11.503Z,18.02
2022-09-27T00:04:58.088Z,17.92
2022-09-27T00:07:38.600Z,17.89
2022-09-27T00:10:25.064Z,17.86
2022-09-27T00:13:05.469Z,17.83
2022-09-27T00:15:52.124Z,17.83
2022-09-27T00:18:33.633Z,17.76
2022-09-27T00:21:23.045Z,17.71
2022-09-27T00:24:10.088Z,17.69
2022-09-27T00:26:58.088Z,17.75
2022-09-27T00:29:45.042Z,17.79
2022-09-27T00:32:32.058Z,17.65
2022-09-27T00:35:12.670Z,17.65
2022-09-27T00:38:02.075Z,17.67
2022-09-27T00:40:50.094Z,17.72
2022-09-27T00:43:37.072Z,17.65
2022-09-27T00:46:27.182Z,17.53
2022-09-27T00:49:27.047Z,17.52
2022-09-27T00:52:11.559Z,17.37
2022-09-27T00:55:00.990Z,17.32
2022-09-27T00:57:44.697Z,17.29
2022-09-27T01:00:32.017Z,17.29
2022-09-27T01:03:32.031Z,17.29
2022-09-27T01:06:16.120Z,17.20
2022-09-27T01:09:02.987Z,17.18
2022-09-27T01:12:05.040Z,17.25
2022-09-27T01:14:45.804Z,17.19
2022-09-27T01:17:56.994Z,17.16
2022-09-27T01:20:52.960Z,17.08
2022-09-27T01:24:10.017Z,17.10
2022-09-27T01:27:18.116Z,17.03
2022-09-27T01:30:03.988Z,17.11
2022-09-27T01:32:52.035Z,17.11
2022-09-27T01:35:47.111Z,17.13
2022-09-27T01:38:46.964Z,17.23
2022-09-27T01:41:47.016Z,17.26
2022-09-27T01:45:24.967Z,17.31
2022-09-27T01:48:44.073Z,17.50
2022-09-27T01:51:33.962Z,17.60
2022-09-27T01:54:25.020Z,17.63
2022-09-27T01:57:44.176Z,17.70
2022-09-27T02:00:36.922Z,17.71
2022-09-27T02:03:27.950Z,17.75
2022-09-27T02:06:50.142Z,17.73
2022-09-27T02:09:49.921Z,17.72
2022-09-27T02:12:47.940Z,17.68
2022-09-27T02:15:36.594Z,17.62
2022-09-27T02:18:49.933Z,17.56
2022-09-27T02:21:56.104Z,17.56
2022-09-27T02:25:15.922Z,17.71
2022-09-27T02:28:25.952Z,17.65
2022-09-27T02:31:12.995Z,17.70
2022-09-27T02:33:59.969Z,17.71
2022-09-27T02:36:40.744Z,17.82
2022-09-27T02:39:29.003Z,17.87
2022-09-27T02:42:12.725Z,17.92
2022-09-27T02:44:59.880Z,17.91
2022-09-27T02:47:55.920Z,17.83
2022-09-27T02:51:08.036Z,17.81
2022-09-27T02:54:02.770Z,17.92
2022-09-27T02:57:39.925Z,17.96
2022-09-27T03:01:16.979Z,17.96
2022-09-27T03:04:54.910Z,18.05
2022-09-27T03:26:12.803Z,17.33
2022-09-27T03:28:53.488Z,17.56
2022-09-27T03:31:40.040Z,17.64
2022-09-27T03:34:55.522Z,17.81
2022-09-27T03:37:41.935Z,18.01
2022-09-27T03:40:22.364Z,18.19
2022-09-27T03:43:08.950Z,18.17
2022-09-27T03:45:57.999Z,18.33
2022-09-27T03:48:44.947Z,18.39
2022-09-27T03:51:31.945Z,18.49
2022-09-27T03:54:11.997Z,18.54
2022-09-27T03:56:58.973Z,18.53
2022-09-27T03:59:39.990Z,18.59
2022-09-27T04:02:49.029Z,18.66
2022-09-27T04:05:30.064Z,18.73
2022-09-27T04:08:20.928Z,18.39
2022-09-27T04:11:01.008Z,18.46
2022-09-27T04:13:50.943Z,18.60
2022-09-27T04:16:43.165Z,18.60
2022-09-27T04:19:40.886Z,18.75
2022-09-27T04:22:21.040Z,18.70
2022-09-27T04:25:07.866Z,18.62
2022-09-27T04:27:54.900Z,18.70
2022-09-27T04:30:42.887Z,18.51
2022-09-27T04:33:38.075Z,18.68
2022-09-27T04:36:44.901Z,18.68
2022-09-27T04:39:25.005Z,18.84
2022-09-27T04:42:12.895Z,19.02
2022-09-27T04:44:59.866Z,19.15
2022-09-27T04:47:47.607Z,19.26
2022-09-27T04:50:36.506Z,19.35
2022-09-27T04:53:23.870Z,19.44
2022-09-27T04:56:12.843Z,19.45
2022-09-27T04:58:54.018Z,19.35
2022-09-27T05:01:40.956Z,19.55
2022-09-27T05:04:41.232Z,19.83
2022-09-27T05:07:28.859Z,20.07
2022-09-27T05:10:13.414Z,20.04
2022-09-27T05:12:59.900Z,20.17
2022-09-27T05:15:46.871Z,20.47
2022-09-27T05:18:52.899Z,20.83
2022-09-27T05:22:15.855Z,21.17
2022-09-27T05:25:02.850Z,21.56
2022-09-27T05:27:43.365Z,21.78
2022-09-27T05:30:30.859Z,21.66
2022-09-27T05:33:15.218Z,21.77
2022-09-27T05:36:08.830Z,21.27
2022-09-27T05:38:49.586Z,21.41
2022-09-27T05:41:38.930Z,21.63
2022-09-27T05:44:19.266Z,22.08
2022-09-27T05:47:14.836Z,22.44
2022-09-27T05:50:02.805Z,23.05
2022-09-27T05:52:42.929Z,23.42
2022-09-27T05:55:31.731Z,23.38
2022-09-27T05:58:16.342Z,22.73
2022-09-27T06:01:08.790Z,22.21
2022-09-27T06:04:21.767Z,22.57
2022-09-27T06:07:28.766Z,22.54
2022-09-27T06:10:19.842Z,23.88
2022-09-27T06:13:12.786Z,26.01
2022-09-27T06:15:59.722Z,29.04
2022-09-27T06:18:42.805Z,29.49
2022-09-27T06:21:30.757Z,29.55
2022-09-27T06:24:24.781Z,27.85
2022-09-27T06:27:17.726Z,27.90
2022-09-27T06:30:16.899Z,30.11
2022-09-27T06:33:08.764Z,29.27
2022-09-27T06:35:54.897Z,28.24
2022-09-27T06:38:42.738Z,27.52
2022-09-27T06:41:36.239Z,27.68
2022-09-27T06:44:33.716Z,30.12
2022-09-27T06:47:38.743Z,31.59
2022-09-27T06:50:46.751Z,30.51
2022-09-27T06:53:26.890Z,28.14
2022-09-27T06:56:13.714Z,26.75
2022-09-27T06:59:14.555Z,26.18
2022-09-27T07:02:01.746Z,26.88
2022-09-27T07:05:12.855Z,27.06
2022-09-27T07:08:12.703Z,27.14
2022-09-27T07:10:53.719Z,27.32
2022-09-27T07:13:43.686Z,27.35
2022-09-27T07:16:24.245Z,27.21
2022-09-27T07:19:13.758Z,28.26
2022-09-27T07:22:04.705Z,30.42
2022-09-27T07:24:51.695Z,34.72
2022-09-27T07:27:39.694Z,37.24
2022-09-27T07:30:21.399Z,35.29
2022-09-27T07:33:17.707Z,32.57
2022-09-27T07:35:58.092Z,35.68
2022-09-27T07:38:45.684Z,36.57
2022-09-27T07:41:27.092Z,37.63
2022-09-27T07:44:14.675Z,38.58
2022-09-27T07:47:25.638Z,38.26
2022-09-27T07:50:28.679Z,38.04
2022-09-27T07:53:38.666Z,38.24
2022-09-27T07:56:37.851Z,37.69
2022-09-27T07:59:25.648Z,36.14
2022-09-27T08:02:13.728Z,33.65
2022-09-27T08:04:55.082Z,32.94
2022-09-27T08:07:42.671Z,31.62
2022-09-27T08:10:26.071Z,33.28
2022-09-27T08:13:14.642Z,32.92
2022-09-27T08:16:08.700Z,33.07
2022-09-27T08:19:26.851Z,30.72
2022-09-27T08:22:40.651Z,29.54
2022-09-27T08:25:48.631Z,31.12
2022-09-27T08:28:55.145Z,31.42
2022-09-27T08:31:44.728Z,32.83
2022-09-27T08:34:26.194Z,33.02
2022-09-27T08:37:12.693Z,33.21
2022-09-27T08:39:53.004Z,31.61
2022-09-27T08:42:49.649Z,31.19
2022-09-27T08:45:39.129Z,31.05
2022-09-27T08:48:26.644Z,30.16
2022-09-27T08:51:13.308Z,31.45
2022-09-27T08:54:06.630Z,31.46
2022-09-27T08:56:49.479Z,32.51
2022-09-27T08:59:42.592Z,30.38
2022-09-27T09:02:26.226Z,30.88
2022-09-27T09:05:46.591Z,30.32
2022-09-27T09:08:46.285Z,31.31
2022-09-27T09:12:16.624Z,31.08
2022-09-27T09:15:06.601Z,29.10
2022-09-27T09:18:22.606Z,29.25
2022-09-27T09:21:30.674Z,30.02
2022-09-27T09:24:20.637Z,31.25
2022-09-27T09:27:23.729Z,30.84
2022-09-27T09:30:19.645Z,31.07
2022-09-27T09:33:23.265Z,31.91
2022-09-27T09:36:09.648Z,31.39
2022-09-27T09:39:01.726Z,30.44
2022-09-27T09:42:17.603Z,29.97
2022-09-27T09:45:04.063Z,29.34
2022-09-27T09:47:52.602Z,28.37
2022-09-27T09:50:48.614Z,27.65
2022-09-27T09:53:51.788Z,27.76
2022-09-27T09:56:52.541Z,27.44
2022-09-27T09:59:44.521Z,27.91
2022-09-27T10:02:44.534Z,28.22
2022-09-27T10:05:40.601Z,29.39
2022-09-27T10:08:24.319Z,30.41
2022-09-27T10:11:40.519Z,34.16
2022-09-27T10:14:33.713Z,32.48
2022-09-27T10:17:21.539Z,31.30
2022-09-27T10:20:06.855Z,29.88
2022-09-27T10:22:54.543Z,30.38
2022-09-27T10:26:03.520Z,29.32
2022-09-27T10:28:56.624Z,28.56
2022-09-27T10:31:54.594Z,28.01
2022-09-27T10:34:47.585Z,27.69
2022-09-27T10:37:34.503Z,27.56
2022-09-27T10:40:35.439Z,28.73
2022-09-27T10:43:34.514Z,30.22
2022-09-27T10:46:36.610Z,27.84
2022-09-27T10:49:47.480Z,29.00
2022-09-27T10:52:53.621Z,30.08
2022-09-27T10:55:44.509Z,32.44
2022-09-27T10:58:34.655Z,32.76
2022-09-27T11:01:25.514Z,34.36
2022-09-27T11:04:38.587Z,34.94
2022-09-27T11:07:23.399Z,33.07
2022-09-27T11:10:39.494Z,29.90
2022-09-27T11:13:27.463Z,30.73
2022-09-27T11:16:52.538Z,30.20
2022-09-27T11:20:03.457Z,27.48
2022-09-27T11:23:16.475Z,26.91
2022-09-27T11:26:51.466Z,25.95
2022-09-27T11:29:46.609Z,25.26
2022-09-27T11:33:31.451Z,25.60
2022-09-27T11:36:21.461Z,24.92
2022-09-27T11:39:37.475Z,24.63
2022-09-27T11:42:52.552Z,25.02
2022-09-27T11:49:10.520Z,25.22
2022-09-27T11:52:23.428Z,25.10
2022-09-27T11:55:36.556Z,25.08
2022-09-27T11:58:27.709Z,25.69
2022-09-27T12:02:04.484Z,25.88
2022-09-27T12:05:04.454Z,25.09
2022-09-27T12:08:04.410Z,24.66
2022-09-27T12:10:57.478Z,24.26
2022-09-27T12:13:48.692Z,24.16
2022-09-27T12:16:38.441Z,24.63
2022-09-27T12:19:30.488Z,24.89
2022-09-27T12:22:46.712Z,25.09
2022-09-27T12:25:32.401Z,25.51
2022-09-27T12:28:51.188Z,25.43
2022-09-27T12:32:04.409Z,25.10
2022-09-27T12:35:00.410Z,25.49
2022-09-27T12:37:45.863Z,25.68
2022-09-27T12:40:37.409Z,26.08
2022-09-27T12:43:33.490Z,26.52
2022-09-27T12:46:43.412Z,27.08
2022-09-27T12:49:30.384Z,27.08
2022-09-27T12:52:14.748Z,26.77
2022-09-27T12:55:33.378Z,26.91
2022-09-27T12:58:33.662Z,26.82
2022-09-27T13:01:24.425Z,26.85
2022-09-27T13:04:14.690Z,27.09
2022-09-27T13:07:37.351Z,27.35
2022-09-27T13:10:56.380Z,27.40
2022-09-27T13:13:42.519Z,27.25
2022-09-27T13:16:32.445Z,26.98
2022-09-27T13:19:21.107Z,26.69
2022-09-27T13:22:33.357Z,26.39
2022-09-27T13:26:04.358Z,25.92
2022-09-27T13:28:55.351Z,25.83
2022-09-27T13:32:08.341Z,25.84
2022-09-27T13:35:32.406Z,25.67
2022-09-27T13:38:30.438Z,25.66
2022-09-27T13:41:23.347Z,25.87
2022-09-27T13:44:17.612Z,25.82
2022-09-27T13:47:13.317Z,25.80
2022-09-27T13:49:56.461Z,25.57
2022-09-27T13:53:09.330Z,25.59
2022-09-27T13:56:04.287Z,25.22
2022-09-27T13:59:01.590Z,25.23
2022-09-27T14:02:00.336Z,24.68
2022-09-27T14:04:58.330Z,23.56
2022-09-27T14:07:48.431Z,22.84
2022-09-27T14:10:37.282Z,22.49
2022-09-27T14:13:24.409Z,22.02
2022-09-27T14:16:23.285Z,21.91
2022-09-27T14:19:04.408Z,21.81
2022-09-27T14:21:53.399Z,21.92
2022-09-27T14:25:00.271Z,21.67
2022-09-27T14:27:51.262Z,21.90
2022-09-27T14:30:37.389Z,22.01
2022-09-27T14:33:46.267Z,22.16
2022-09-27T14:36:56.881Z,22.20
2022-09-27T14:39:48.283Z,21.95
2022-09-27T14:42:45.256Z,21.79
2022-09-27T14:45:47.298Z,21.28
2022-09-27T14:48:44.257Z,21.19
2022-09-27T14:51:37.271Z,21.01
2022-09-27T14:54:33.202Z,20.83
2022-09-27T14:57:24.245Z,20.76
2022-09-27T15:00:12.260Z,20.75
2022-09-27T15:03:02.338Z,20.81
2022-09-27T15:05:50.269Z,20.75
2022-09-27T15:08:34.076Z,20.73
2022-09-27T15:27:52.636Z,19.79
2022-09-27T15:30:42.627Z,19.81
2022-09-27T15:33:41.637Z,19.81
2022-09-27T15:36:51.375Z,19.98
2022-09-27T15:39:47.627Z,20.04
2022-09-27T15:42:28.020Z,20.05
2022-09-27T15:45:14.638Z,20.07
2022-09-27T15:48:01.587Z,20.12
2022-09-27T15:50:49.575Z,20.14
2022-09-27T15:53:35.848Z,20.31
2022-09-27T15:56:26.589Z,20.31
2022-09-27T15:59:20.787Z,20.34
2022-09-27T16:02:12.641Z,20.41
2022-09-27T16:04:52.968Z,20.49
2022-09-27T16:07:39.576Z,20.48
2022-09-27T16:10:29.884Z,20.49
2022-09-27T16:13:16.533Z,20.54
2022-09-27T16:16:03.679Z,20.58
2022-09-27T16:18:50.535Z,20.59
2022-09-27T16:21:38.550Z,20.60
2022-09-27T16:24:19.695Z,20.64
2022-09-27T16:27:06.531Z,20.80
2022-09-27T16:29:46.725Z,20.77
2022-09-27T16:32:33.545Z,20.82
2022-09-27T16:35:17.806Z,20.82
2022-09-27T16:38:04.574Z,20.95
2022-09-27T16:40:44.692Z,21.09
2022-09-27T16:43:33.557Z,21.28
2022-09-27T16:46:18.822Z,21.34
2022-09-27T16:49:05.583Z,21.46
2022-09-27T16:52:00.693Z,21.60
2022-09-27T16:54:47.541Z,21.59
2022-09-27T16:57:37.527Z,21.70
2022-09-27T17:00:18.687Z,21.84
2022-09-27T17:03:05.553Z,21.63
2022-09-27T17:05:45.897Z,21.60
2022-09-27T17:08:32.497Z,21.63
2022-09-27T17:11:23.500Z,21.53
2022-09-27T17:14:10.523Z,21.46
2022-09-27T17:16:51.395Z,21.36
2022-09-27T17:19:38.495Z,21.43
2022-09-27T17:22:19.013Z,21.46
2022-09-27T17:25:05.499Z,21.54
2022-09-27T17:27:52.630Z,21.59
2022-09-27T17:30:32.489Z,21.64
2022-09-27T17:33:19.540Z,21.74
2022-09-27T17:36:08.638Z,21.69
2022-09-27T17:38:56.490Z,21.78
2022-09-27T17:41:45.529Z,21.86
2022-09-27T17:44:27.167Z,21.87
2022-09-27T17:47:32.477Z,21.84
2022-09-27T17:50:33.471Z,21.94
2022-09-27T17:53:20.480Z,21.97
2022-09-27T17:56:07.609Z,21.99
2022-09-27T17:58:58.446Z,21.92
2022-09-27T18:01:46.591Z,21.98
2022-09-27T18:04:26.819Z,21.94
2022-09-27T18:07:13.474Z,21.94
2022-09-27T18:09:53.859Z,22.08
2022-09-27T18:12:43.461Z,22.14
2022-09-27T18:15:23.851Z,22.17
2022-09-27T18:18:11.422Z,22.20
2022-09-27T18:20:51.821Z,22.14
2022-09-27T18:23:38.404Z,22.12
2022-09-27T18:26:26.485Z,22.15
2022-09-27T18:29:09.573Z,22.03
2022-09-27T18:31:56.455Z,22.16
2022-09-27T18:34:43.446Z,22.09
2022-09-27T18:37:23.781Z,22.22
2022-09-27T18:40:10.434Z,22.19
2022-09-27T18:42:57.434Z,22.22
2022-09-27T18:45:38.155Z,22.17
2022-09-27T18:48:24.413Z,22.22
2022-09-27T18:51:04.523Z,22.20
2022-09-27T18:53:52.448Z,22.17
2022-09-27T18:56:39.429Z,22.16
2022-09-27T18:59:28.422Z,22.16
2022-09-27T19:02:15.469Z,22.01
2022-09-27T19:05:02.414Z,21.84
2022-09-27T19:07:42.727Z,21.46
2022-09-27T19:10:29.402Z,20.96
2022-09-27T19:13:09.508Z,20.73
2022-09-27T19:16:04.438Z,20.65
2022-09-27T19:18:53.421Z,20.57
2022-09-27T19:21:40.424Z,20.47
2022-09-27T19:24:20.979Z,20.36
2022-09-27T19:27:07.337Z,20.12
2022-09-27T19:29:54.395Z,19.80
2022-09-27T19:32:34.744Z,19.47
2022-09-27T19:35:21.371Z,19.22
2022-09-27T19:38:08.393Z,18.98
2022-09-27T19:40:48.529Z,18.57
2022-09-27T19:43:37.380Z,18.30
2022-09-27T19:46:29.406Z,18.06
2022-09-27T19:49:16.464Z,18.04
2022-09-27T19:51:56.491Z,17.99
2022-09-27T19:54:43.353Z,17.95
2022-09-27T19:57:32.705Z,17.70
2022-09-27T20:00:12.908Z,17.56
2022-09-27T20:02:59.462Z,17.39
2022-09-27T20:05:41.844Z,17.30
2022-09-27T20:08:28.304Z,17.38
2022-09-27T20:11:11.798Z,17.33
2022-09-27T20:13:58.330Z,17.41
2022-09-27T20:16:45.547Z,17.53
2022-09-27T20:19:26.465Z,17.54
2022-09-27T20:22:06.707Z,17.66
2022-09-27T20:24:53.309Z,17.54
2022-09-27T20:27:47.304Z,17.51
2022-09-27T20:30:34.328Z,17.53
2022-09-27T20:33:34.913Z,17.66
2022-09-27T20:36:36.285Z,17.54
2022-09-27T20:39:29.309Z,17.55
2022-09-27T20:42:16.316Z,17.46
2022-09-27T20:44:56.431Z,17.41
2022-09-27T20:47:45.303Z,17.55
2022-09-27T20:50:25.434Z,17.47
2022-09-27T20:53:12.304Z,17.43
2022-09-27T20:55:52.451Z,17.34
2022-09-27T20:58:39.299Z,17.22
2022-09-27T21:01:20.510Z,17.06
2022-09-27T21:04:09.285Z,17.12
2022-09-27T21:06:57.320Z,17.03
2022-09-27T21:09:38.843Z,16.98
2022-09-27T21:12:25.281Z,16.88
2022-09-27T21:15:12.413Z,16.76
2022-09-27T21:17:52.285Z,16.73
2022-09-27T21:20:32.654Z,16.75
2022-09-27T21:23:19.244Z,16.83
2022-09-27T21:26:43.227Z,16.79
2022-09-27T21:29:24.217Z,16.74
2022-09-27T21:32:11.206Z,16.75
2022-09-27T21:34:51.366Z,16.68
2022-09-27T21:37:39.113Z,16.76
2022-09-27T21:40:19.770Z,16.75
2022-09-27T21:43:06.255Z,16.61
2022-09-27T21:45:53.206Z,16.68
2022-09-27T21:48:41.245Z,16.59
2022-09-27T21:51:24.502Z,16.64
2022-09-27T21:54:15.257Z,16.66
2022-09-27T21:57:02.215Z,16.75
2022-09-27T21:59:49.175Z,16.71
2022-09-27T22:02:30.082Z,16.69
2022-09-27T22:05:17.172Z,16.69
2022-09-27T22:08:04.224Z,16.76
2022-09-27T22:10:52.206Z,16.64
2022-09-27T22:13:34.322Z,16.55
2022-09-27T22:16:23.284Z,16.51
2022-09-27T22:19:04.291Z,16.29
2022-09-27T22:21:51.203Z,16.19
2022-09-27T22:24:31.322Z,16.09
2022-09-27T22:27:18.202Z,16.04
2022-09-27T22:30:05.258Z,16.08
2022-09-27T22:32:45.847Z,16.13
2022-09-27T22:35:33.214Z,16.03
2022-09-27T22:38:13.671Z,16.02
2022-09-27T22:41:08.194Z,15.89
2022-09-27T22:43:55.173Z,15.82
2022-09-27T22:46:35.763Z,15.80
2022-09-27T22:49:22.154Z,15.79
2022-09-27T22:52:02.303Z,15.76
2022-09-27T22:54:49.170Z,15.84
2022-09-27T22:57:29.214Z,15.75
2022-09-27T23:00:17.159Z,15.78
2022-09-27T23:03:01.290Z,15.84
2022-09-27T23:05:48.152Z,15.83
2022-09-27T23:08:28.301Z,15.88
2022-09-27T23:11:16.104Z,15.95
2022-09-27T23:14:04.153Z,15.96
2022-09-27T23:16:44.574Z,15.94
2022-09-27T23:19:33.111Z,15.87
2022-09-27T23:22:20.143Z,15.84
2022-09-27T23:25:01.069Z,15.84
2022-09-27T23:27:54.108Z,15.83
2022-09-27T23:30:41.106Z,15.87
2022-09-27T23:33:29.136Z,15.80
2022-09-27T23:36:10.517Z,15.85
2022-09-27T23:38:57.107Z,15.76
2022-09-27T23:41:37.157Z,15.73
2022-09-27T23:44:24.097Z,15.76
2022-09-27T23:47:04.303Z,15.72
2022-09-27T23:49:51.041Z,15.64
2022-09-27T23:52:31.198Z,15.61
2022-09-27T23:55:19.060Z,15.48
2022-09-27T23:57:59.220Z,15.45
